Time;durP1;ratioP1;P1;durP2;ratioP2;P2;SDS_P1;SDS_P2;PMS_P1;PMS_P2;Temp;Humidity;BMP_temperature;BMP_pressure;BME280_temperature;BME280_humidity;BME280_pressure;Samples;Min_cycle;Max_cycle;Signal;HPM_P1;HPM_P2
2022/06/12 00:00:16;;;;;;;3.08;1.73;;;18.40;73.80;;;;;;5049465;28;20037;-74
2022/06/12 00:02:43;;;;;;;2.97;1.60;;;18.40;73.90;;;;;;5052822;28;20175;-71
2022/06/12 00:05:13;;;;;;;3.55;1.70;;;18.30;73.90;;;;;;5052667;28;20515;-70
2022/06/12 00:07:40;;;;;;;2.72;1.38;;;18.20;73.90;;;;;;5052681;28;20131;-75
2022/06/12 00:10:09;;;;;;;2.78;1.70;;;18.20;74.00;;;;;;5052828;28;20596;-71
2022/06/12 00:12:37;;;;;;;2.95;1.33;;;18.20;73.90;;;;;;5050401;28;20055;-69
2022/06/12 00:15:04;;;;;;;4.43;1.85;;;18.20;74.00;;;;;;5049819;28;20040;-73
2022/06/12 00:17:31;;;;;;;3.10;1.33;;;18.20;74.00;;;;;;5050415;28;20048;-73
2022/06/12 00:19:58;;;;;;;2.25;1.10;;;18.10;74.20;;;;;;5052621;28;20053;-71
2022/06/12 00:22:26;;;;;;;2.00;1.30;;;18.10;74.20;;;;;;5053330;28;20778;-71
2022/06/12 00:24:53;;;;;;;2.17;1.10;;;18.00;74.40;;;;;;5055442;28;20523;-68
2022/06/12 00:27:22;;;;;;;3.40;1.42;;;18.00;74.50;;;;;;5059554;28;20067;-70
2022/06/12 00:29:50;;;;;;;2.42;1.25;;;18.00;74.50;;;;;;5058279;28;20496;-71
2022/06/12 00:32:18;;;;;;;3.30;1.30;;;18.00;74.30;;;;;;5052536;28;20048;-71
2022/06/12 00:34:49;;;;;;;2.75;1.40;;;18.00;74.30;;;;;;5056785;28;20103;-72
2022/06/12 00:37:17;;;;;;;;;;;17.90;74.30;;;;;;5057593;28;20106;-74
2022/06/12 00:39:48;;;;;;;3.45;1.20;;;17.90;74.40;;;;;;5053630;28;19926;-71
2022/06/12 00:42:27;;;;;;;5.60;1.35;;;17.90;74.40;;;;;;5067484;28;21640;-72
2022/06/12 00:44:57;;;;;;;2.28;1.02;;;17.80;74.40;;;;;;5054093;28;20061;-71
2022/06/12 00:47:24;;;;;;;3.17;1.73;;;17.80;74.50;;;;;;5049506;28;20045;-71
2022/06/12 00:49:55;;;;;;;2.88;1.60;;;17.70;74.50;;;;;;5048252;28;20048;-71
2022/06/12 00:52:25;;;;;;;3.05;1.38;;;17.70;74.70;;;;;;5048626;28;20040;-71
2022/06/12 00:54:58;;;;;;;4.50;1.48;;;17.70;74.70;;;;;;5050792;28;20048;-72
2022/06/12 00:57:26;;;;;;;2.63;1.30;;;17.60;74.80;;;;;;5050898;28;20130;-72
2022/06/12 00:59:56;;;;;;;3.20;1.40;;;17.60;74.80;;;;;;5057418;28;20041;-69
2022/06/12 01:02:25;;;;;;;;;;;17.60;74.80;;;;;;5048796;28;20113;-67
2022/06/12 01:07:47;;;;;;;3.55;1.83;;;17.60;75.00;;;;;;5014489;28;20536;-71
2022/06/12 01:10:18;;;;;;;4.55;1.90;;;17.60;75.10;;;;;;5053537;28;20583;-74
2022/06/12 01:12:49;;;;;;;3.60;1.70;;;17.60;75.00;;;;;;5055505;28;20048;-69
2022/06/12 01:15:19;;;;;;;3.20;1.30;;;17.50;75.00;;;;;;5054453;28;20040;-71
2022/06/12 01:17:47;;;;;;;3.13;1.33;;;17.50;75.10;;;;;;5052843;28;20055;-72
2022/06/12 01:20:17;;;;;;;3.15;1.48;;;17.40;75.10;;;;;;5050795;28;20045;-71
2022/06/12 01:23:01;;;;;;;2.17;1.27;;;17.40;75.00;;;;;;5051104;28;20072;-70
2022/06/12 01:25:56;;;;;;;4.22;1.60;;;17.40;75.10;;;;;;5057418;28;20052;-73
2022/06/12 01:28:41;;;;;;;3.80;1.70;;;17.40;75.10;;;;;;5041847;28;20045;-72
2022/06/12 01:31:31;;;;;;;2.72;1.48;;;17.40;75.10;;;;;;5062497;28;20047;-70
2022/06/12 01:34:08;;;;;;;3.30;1.30;;;17.30;75.10;;;;;;5055352;28;20049;-68
2022/06/12 01:36:43;;;;;;;2.75;1.50;;;17.30;75.00;;;;;;5061472;28;20049;-70
2022/06/12 01:39:19;;;;;;;3.67;1.50;;;17.20;75.20;;;;;;5059709;28;20053;-73
2022/06/12 01:41:54;;;;;;;2.65;1.45;;;17.10;75.40;;;;;;5060815;28;20052;-71
2022/06/12 01:44:43;;;;;;;3.65;1.27;;;17.10;75.40;;;;;;5056821;28;20060;-73
2022/06/12 01:47:27;;;;;;;3.20;1.52;;;17.20;75.40;;;;;;5055635;28;20052;-71
2022/06/12 01:50:04;;;;;;;2.10;1.30;;;17.20;75.40;;;;;;5059301;28;20044;-72
2022/06/12 01:52:40;;;;;;;3.85;1.50;;;17.10;75.50;;;;;;5061097;28;20474;-70
2022/06/12 01:55:14;;;;;;;3.40;1.60;;;17.00;75.70;;;;;;5063352;28;20064;-69
2022/06/12 01:57:45;;;;;;;6.90;1.65;;;17.00;75.80;;;;;;5061588;28;20407;-70
2022/06/12 02:00:18;;;;;;;3.22;1.50;;;16.90;76.00;;;;;;5058342;28;20051;-74
2022/06/12 02:02:50;;;;;;;3.25;1.90;;;16.90;76.00;;;;;;5076063;28;20056;-73
2022/06/12 02:05:22;;;;;;;3.38;1.58;;;16.90;76.10;;;;;;5062939;28;20037;-70
2022/06/12 02:07:56;;;;;;;4.93;1.95;;;16.90;76.20;;;;;;5062727;28;20122;-72
2022/06/12 02:10:27;;;;;;;4.00;1.65;;;16.90;76.20;;;;;;5063194;28;20144;-68
2022/06/12 02:13:11;;;;;;;4.22;2.17;;;16.90;76.40;;;;;;5067976;28;20052;-74
2022/06/12 02:15:46;;;;;;;2.70;1.80;;;16.80;76.60;;;;;;5061755;28;20072;-70
2022/06/12 02:18:22;;;;;;;6.10;1.65;;;16.80;76.70;;;;;;5056102;28;20130;-67
2022/06/12 02:20:53;;;;;;;4.05;1.88;;;16.80;76.80;;;;;;5059967;28;20052;-69
2022/06/12 02:23:25;;;;;;;6.53;1.90;;;16.80;77.00;;;;;;5059904;28;20041;-69
2022/06/12 02:25:55;;;;;;;4.63;1.98;;;16.80;77.00;;;;;;5059457;28;20045;-72
2022/06/12 02:28:29;;;;;;;2.17;1.40;;;16.80;76.90;;;;;;5059888;28;20495;-71
2022/06/12 02:31:04;;;;;;;4.07;1.50;;;16.80;76.90;;;;;;5060626;28;20537;-75
2022/06/12 02:33:36;;;;;;;3.85;1.42;;;16.80;76.80;;;;;;5059540;28;20048;-69
2022/06/12 02:36:08;;;;;;;4.32;1.77;;;16.80;76.70;;;;;;5060746;28;20052;-71
2022/06/12 02:38:39;;;;;;;3.47;1.65;;;16.70;76.50;;;;;;5057599;28;20412;-68
2022/06/12 02:41:10;;;;;;;4.43;1.60;;;16.70;76.60;;;;;;5058590;28;20076;-68
2022/06/12 02:43:40;;;;;;;2.97;1.70;;;16.60;76.80;;;;;;5059630;28;20066;-73
2022/06/12 02:46:11;;;;;;;3.13;1.58;;;16.60;76.90;;;;;;5058998;28;20049;-68
2022/06/12 02:48:38;;;;;;;4.22;1.92;;;16.60;77.20;;;;;;5061349;28;20368;-72
2022/06/12 02:51:11;;;;;;;3.20;1.90;;;16.60;77.10;;;;;;5061789;28;20056;-71
2022/06/12 02:53:51;;;;;;;2.97;1.45;;;16.60;77.20;;;;;;5059533;28;20053;-70
2022/06/12 02:56:25;;;;;;;3.25;1.73;;;16.60;77.20;;;;;;5057948;28;20045;-67
2022/06/12 02:58:59;;;;;;;3.63;1.50;;;16.60;77.40;;;;;;5056847;28;20048;-73
2022/06/12 03:01:33;;;;;;;3.88;1.80;;;16.60;77.30;;;;;;5052600;28;20407;-71
2022/06/12 03:04:08;;;;;;;2.47;1.50;;;16.60;77.40;;;;;;5056418;28;20058;-73
2022/06/12 03:06:37;;;;;;;4.53;1.73;;;16.60;77.20;;;;;;5056017;28;20044;-72
2022/06/12 03:09:07;;;;;;;2.47;1.25;;;16.60;77.10;;;;;;5055307;28;20045;-74
2022/06/12 03:11:37;;;;;;;3.85;1.52;;;16.60;76.90;;;;;;5051926;28;20056;-70
2022/06/12 03:14:09;;;;;;;2.60;1.48;;;16.60;76.70;;;;;;5055111;28;20040;-73
2022/06/12 03:16:41;;;;;;;2.53;1.52;;;16.60;76.70;;;;;;5050114;28;20073;-73
2022/06/12 03:19:11;;;;;;;3.00;1.65;;;16.60;76.90;;;;;;5052338;28;20527;-72
2022/06/12 03:21:41;;;;;;;3.55;1.73;;;16.50;77.20;;;;;;5059310;28;20504;-70
2022/06/12 03:24:26;;;;;;;3.00;1.88;;;16.50;77.20;;;;;;5060543;28;20087;-71
2022/06/12 03:27:03;;;;;;;4.32;1.67;;;16.50;77.20;;;;;;5059667;28;20392;-68
2022/06/12 03:29:39;;;;;;;2.67;2.13;;;16.50;77.30;;;;;;5054477;28;20067;-72
2022/06/12 03:32:15;;;;;;;4.72;1.83;;;16.50;77.50;;;;;;5052398;28;20037;-72
2022/06/12 03:34:49;;;;;;;3.17;2.00;;;16.40;77.60;;;;;;5055643;28;20101;-68
2022/06/12 03:37:29;;;;;;;3.90;1.80;;;16.50;77.40;;;;;;5052879;28;20044;-71
2022/06/12 03:40:03;;;;;;;3.42;1.70;;;16.50;77.20;;;;;;5056467;28;20049;-70
2022/06/12 03:42:43;;;;;;;3.03;1.70;;;16.50;77.00;;;;;;5054199;28;20048;-68
2022/06/12 03:45:16;;;;;;;5.35;1.65;;;16.60;77.00;;;;;;5049937;28;20107;-70
2022/06/12 03:47:51;;;;;;;4.72;1.83;;;16.50;77.00;;;;;;5053046;28;20140;-70
2022/06/12 03:50:24;;;;;;;2.47;1.75;;;16.60;77.10;;;;;;5044495;28;20126;-71
2022/06/12 03:52:57;;;;;;;5.57;2.45;;;16.60;77.10;;;;;;5062346;28;20086;-73
2022/06/12 03:58:25;;;;;;;5.30;1.83;;;16.50;77.20;;;;;;5050636;28;20053;-68
2022/06/12 04:00:53;;;;;;;3.75;1.88;;;16.50;77.30;;;;;;5036915;28;20048;-69
2022/06/12 04:03:31;;;;;;;2.78;1.63;;;16.40;77.50;;;;;;5050472;28;20052;-72
2022/06/12 04:06:07;;;;;;;3.63;1.90;;;16.40;77.60;;;;;;5049890;28;20115;-71
2022/06/12 04:08:38;;;;;;;3.85;1.98;;;16.40;77.80;;;;;;5050353;28;20482;-71
2022/06/12 04:11:10;;;;;;;4.78;2.08;;;16.40;77.90;;;;;;5052624;28;20256;-71
2022/06/12 04:13:42;;;;;;;5.70;1.80;;;16.40;77.90;;;;;;5053308;28;20049;-70
2022/06/12 04:16:25;;;;;;;3.97;2.15;;;16.30;78.00;;;;;;5049373;28;20048;-71
2022/06/12 04:18:53;;;;;;;4.05;2.20;;;16.40;78.10;;;;;;5048239;28;20131;-71
2022/06/12 04:21:33;;;;;;;4.32;1.92;;;16.40;78.00;;;;;;5054068;28;20123;-71
2022/06/12 04:24:10;;;;;;;6.25;2.05;;;16.40;78.00;;;;;;5048011;28;20443;-68
2022/06/12 04:26:42;;;;;;;3.88;2.33;;;16.40;78.10;;;;;;5050412;28;20496;-71
2022/06/12 04:29:30;;;;;;;6.60;2.20;;;16.40;78.10;;;;;;5048536;28;20044;-71
2022/06/12 04:32:06;;;;;;;3.85;1.98;;;16.40;78.20;;;;;;5051195;28;20041;-69
2022/06/12 04:34:38;;;;;;;3.25;2.00;;;16.40;78.20;;;;;;5064480;28;20390;-70
2022/06/12 04:37:13;;;;;;;3.95;2.00;;;16.40;78.30;;;;;;5058035;28;20048;-70
2022/06/12 04:39:40;;;;;;;3.92;2.13;;;16.40;78.50;;;;;;5059540;28;20086;-70
2022/06/12 04:42:08;;;;;;;3.83;1.80;;;16.40;78.50;;;;;;5059995;28;20049;-69
2022/06/12 04:44:36;;;;;;;4.15;2.10;;;16.40;78.50;;;;;;5054955;28;20052;-73
2022/06/12 04:47:08;;;;;;;3.33;2.03;;;16.40;78.40;;;;;;5059089;28;20056;-70
2022/06/12 04:49:37;;;;;;;2.17;1.63;;;16.40;78.50;;;;;;5049922;28;20531;-71
2022/06/12 04:52:09;;;;;;;6.70;2.85;;;16.50;78.40;;;;;;5053573;28;20082;-72
2022/06/12 04:54:49;;;;;;;3.58;2.00;;;16.40;78.50;;;;;;5048869;28;20052;-72
2022/06/12 04:57:18;;;;;;;4.82;2.17;;;16.50;78.60;;;;;;5052063;28;20546;-71
2022/06/12 04:59:48;;;;;;;3.45;1.85;;;16.50;78.70;;;;;;5050891;28;20506;-69
2022/06/12 05:02:16;;;;;;;4.25;2.28;;;16.50;78.70;;;;;;5057176;28;20068;-70
2022/06/12 05:04:45;;;;;;;6.55;1.90;;;16.50;78.90;;;;;;5058380;28;20054;-67
2022/06/12 05:07:14;;;;;;;4.68;2.10;;;16.60;78.90;;;;;;5059726;28;20059;-67
2022/06/12 05:09:42;;;;;;;4.53;2.00;;;16.60;78.80;;;;;;5059439;28;20527;-69
2022/06/12 05:12:12;;;;;;;6.90;1.90;;;16.60;78.80;;;;;;5060752;28;20048;-71
2022/06/12 05:14:39;;;;;;;;;;;16.60;78.80;;;;;;5059865;28;20053;-69
2022/06/12 05:17:11;;;;;;;8.45;2.00;;;16.60;78.80;;;;;;5053801;28;19928;-70
2022/06/12 05:19:40;;;;;;;3.20;1.80;;;16.70;78.80;;;;;;5052788;28;20049;-69
2022/06/12 05:22:10;;;;;;;3.60;1.90;;;16.70;79.00;;;;;;5053094;28;20037;-73
2022/06/12 05:24:37;;;;;;;;;;;16.70;79.00;;;;;;5052022;28;20045;-66
2022/06/12 05:27:07;;;;;;;4.07;1.90;;;16.70;79.00;;;;;;5049352;28;20513;-73
2022/06/12 05:29:37;;;;;;;4.78;2.08;;;16.80;79.00;;;;;;5050216;28;20044;-71
2022/06/12 05:32:06;;;;;;;3.58;1.95;;;16.80;78.90;;;;;;5051629;28;20060;-71
2022/06/12 05:34:33;;;;;;;5.25;2.25;;;16.80;79.00;;;;;;5065271;28;20048;-71
2022/06/12 05:37:00;;;;;;;2.95;1.80;;;16.80;79.00;;;;;;5049091;28;20048;-68
2022/06/12 05:39:29;;;;;;;4.43;2.30;;;16.80;79.20;;;;;;5047459;28;20045;-71
2022/06/12 05:41:55;;;;;;;5.43;2.03;;;16.80;79.20;;;;;;5047982;28;20061;-71
2022/06/12 05:44:23;;;;;;;3.45;2.08;;;16.90;79.10;;;;;;5048456;28;22461;-67
2022/06/12 05:46:50;;;;;;;5.85;2.83;;;16.90;79.00;;;;;;5045914;28;20384;-69
2022/06/12 05:49:17;;;;;;;3.03;1.67;;;17.00;78.80;;;;;;5050464;28;20117;-71
2022/06/12 05:51:44;;;;;;;4.53;2.50;;;17.00;78.60;;;;;;5049641;28;20047;-68
2022/06/12 05:54:12;;;;;;;5.68;2.22;;;17.10;78.70;;;;;;5054501;28;20037;-73
2022/06/12 05:56:41;;;;;;;4.53;2.42;;;17.10;78.90;;;;;;5044312;28;20048;-71
2022/06/12 05:59:08;;;;;;;4.28;2.17;;;17.10;78.80;;;;;;5047864;28;20501;-72
2022/06/12 06:01:37;;;;;;;3.92;2.15;;;17.20;78.90;;;;;;5046226;28;20182;-69
2022/06/12 06:04:05;;;;;;;4.03;1.80;;;17.20;78.80;;;;;;5055901;28;20068;-73
2022/06/12 06:06:35;;;;;;;4.10;1.90;;;17.20;78.70;;;;;;5055366;28;20080;-74
2022/06/12 06:09:04;;;;;;;5.47;2.28;;;17.30;78.60;;;;;;5054546;28;20041;-72
2022/06/12 06:11:31;;;;;;;3.50;1.90;;;17.30;78.60;;;;;;5059117;28;20127;-74
2022/06/12 06:13:59;;;;;;;4.03;2.10;;;17.40;78.30;;;;;;5056785;28;20041;-73
2022/06/12 06:16:27;;;;;;;3.55;1.73;;;17.40;78.50;;;;;;5053627;28;20057;-71
2022/06/12 06:18:57;;;;;;;3.75;1.98;;;17.50;78.20;;;;;;5054436;28;20144;-70
2022/06/12 06:21:23;;;;;;;;;;;17.50;78.50;;;;;;5055809;28;20111;-68
2022/06/12 06:23:50;;;;;;;3.38;1.95;;;17.60;78.30;;;;;;5054514;28;19920;-70
2022/06/12 06:26:19;;;;;;;4.07;2.10;;;17.60;78.00;;;;;;5055020;28;20074;-73
2022/06/12 06:28:49;;;;;;;5.18;2.13;;;17.70;77.80;;;;;;5051537;28;20049;-72
2022/06/12 06:31:18;;;;;;;4.50;2.50;;;17.70;78.00;;;;;;5060839;28;20045;-72
2022/06/12 06:33:45;;;;;;;3.75;1.90;;;17.80;77.80;;;;;;5052091;28;21201;-71
2022/06/12 06:36:15;;;;;;;4.80;2.65;;;17.90;77.70;;;;;;5055331;28;20041;-72
2022/06/12 06:38:42;;;;;;;4.80;2.28;;;18.00;77.90;;;;;;5059731;28;20559;-71
2022/06/12 06:41:09;;;;;;;4.00;2.40;;;18.10;77.50;;;;;;5059107;28;20120;-70
2022/06/12 06:46:19;;;;;;;6.90;2.40;;;18.30;77.60;;;;;;5058184;28;20044;-72
2022/06/12 06:48:46;;;;;;;6.18;2.67;;;18.40;77.40;;;;;;5054926;28;20049;-70
2022/06/12 06:51:14;;;;;;;6.07;2.95;;;18.60;77.00;;;;;;5053640;28;20132;-68
2022/06/12 06:53:42;;;;;;;4.82;2.65;;;18.70;77.00;;;;;;5054871;28;20040;-73
2022/06/12 06:56:10;;;;;;;7.15;3.50;;;18.80;77.10;;;;;;5054328;28;20104;-70
2022/06/12 06:58:37;;;;;;;7.00;2.97;;;19.00;77.00;;;;;;5051360;28;20601;-70
2022/06/12 07:01:07;;;;;;;5.68;2.58;;;19.10;76.50;;;;;;5048640;28;20136;-71
2022/06/12 07:03:36;;;;;;;5.43;2.90;;;19.20;76.70;;;;;;5054780;28;20067;-71
2022/06/12 07:06:04;;;;;;;7.60;3.08;;;19.40;76.00;;;;;;5051987;28;20057;-71
2022/06/12 07:08:42;;;;;;;7.10;2.63;;;19.50;75.90;;;;;;5055389;28;20049;-72
2022/06/12 07:11:11;;;;;;;4.97;2.60;;;19.60;76.20;;;;;;5055680;28;20040;-70
2022/06/12 07:13:39;;;;;;;4.47;2.60;;;19.80;76.00;;;;;;5057436;28;20041;-72
2022/06/12 07:16:06;;;;;;;6.78;3.10;;;20.00;76.30;;;;;;5056465;28;20064;-68
2022/06/12 07:18:34;;;;;;;4.95;2.65;;;20.10;75.50;;;;;;5061650;28;20094;-68
2022/06/12 07:21:02;;;;;;;5.03;2.38;;;20.30;75.90;;;;;;5055599;28;20049;-72
2022/06/12 07:23:30;;;;;;;5.72;2.42;;;20.50;75.20;;;;;;5058697;28;20041;-71
2022/06/12 07:26:00;;;;;;;4.43;2.28;;;20.60;75.80;;;;;;5057614;28;20041;-71
2022/06/12 07:28:28;;;;;;;5.22;2.92;;;20.90;74.90;;;;;;5057659;28;20047;-69
2022/06/12 07:30:55;;;;;;;7.32;2.75;;;21.10;74.40;;;;;;5052283;28;20052;-73
2022/06/12 07:33:23;;;;;;;4.55;2.30;;;21.20;74.40;;;;;;5050712;28;20072;-73
2022/06/12 07:35:52;;;;;;;5.32;2.30;;;21.40;74.00;;;;;;5049909;28;20057;-72
2022/06/12 07:38:22;;;;;;;3.80;2.30;;;21.50;72.90;;;;;;5049376;28;20060;-70
2022/06/12 07:40:53;;;;;;;3.75;2.63;;;21.60;72.30;;;;;;5051304;28;20045;-69
2022/06/12 07:43:22;;;;;;;4.32;2.13;;;21.80;72.00;;;;;;5051876;28;20119;-68
2022/06/12 07:45:51;;;;;;;2.92;1.75;;;21.90;73.00;;;;;;5051389;28;20120;-73
2022/06/12 07:48:18;;;;;;;5.65;2.10;;;22.10;68.20;;;;;;5051799;28;20117;-69
2022/06/12 07:50:47;;;;;;;5.90;2.45;;;22.30;69.10;;;;;;5055739;28;20048;-72
2022/06/12 07:53:17;;;;;;;3.72;1.98;;;22.30;70.00;;;;;;5070422;28;20411;-70
2022/06/12 07:55:45;;;;;;;4.47;2.10;;;22.40;67.40;;;;;;5053653;28;20053;-72
2022/06/12 07:58:13;;;;;;;3.88;1.80;;;22.70;66.30;;;;;;5057412;28;20048;-70
2022/06/12 08:00:42;;;;;;;2.38;1.77;;;22.80;65.20;;;;;;5049005;28;20138;-71
2022/06/12 08:03:09;;;;;;;3.08;1.63;;;22.90;66.60;;;;;;5051136;28;20056;-72
2022/06/12 08:05:36;;;;;;;3.30;1.75;;;23.10;64.30;;;;;;5050427;28;20075;-70
2022/06/12 08:08:03;;;;;;;3.58;1.83;;;23.10;64.90;;;;;;5053439;28;21026;-71
2022/06/12 08:10:32;;;;;;;3.00;1.90;;;23.30;63.40;;;;;;5051771;28;20059;-71
2022/06/12 08:12:59;;;;;;;4.20;1.80;;;23.30;64.70;;;;;;5048066;28;20488;-71
2022/06/12 08:15:28;;;;;;;4.55;1.85;;;23.30;63.90;;;;;;5051816;28;20512;-72
2022/06/12 08:17:56;;;;;;;;;;;23.50;63.00;;;;;;5051299;28;20061;-67
2022/06/12 08:20:28;;;;;;;4.90;1.55;;;23.60;63.60;;;;;;5052694;28;20392;-67
2022/06/12 08:22:59;;;;;;;3.05;1.67;;;23.60;63.30;;;;;;5050759;28;20037;-72
2022/06/12 08:25:28;;;;;;;5.85;1.70;;;23.70;61.50;;;;;;5049155;28;20044;-72
2022/06/12 08:27:57;;;;;;;3.45;1.63;;;23.90;61.10;;;;;;5053177;28;20047;-68
2022/06/12 08:30:24;;;;;;;2.85;1.65;;;23.90;60.60;;;;;;5051869;28;20150;-67
2022/06/12 08:32:53;;;;;;;3.53;1.83;;;23.90;60.80;;;;;;5047337;28;20055;-72
2022/06/12 08:35:25;;;;;;;3.92;1.80;;;24.10;60.10;;;;;;5050523;28;20051;-71
2022/06/12 08:37:52;;;;;;;2.50;1.58;;;24.10;59.40;;;;;;5051686;28;20048;-72
2022/06/12 08:40:36;;;;;;;3.15;1.75;;;24.10;59.40;;;;;;5050507;28;20045;-73
2022/06/12 08:43:11;;;;;;;2.97;1.80;;;24.20;58.70;;;;;;5050075;28;20045;-71
2022/06/12 08:45:44;;;;;;;3.95;1.50;;;24.30;58.30;;;;;;5058316;28;20049;-70
2022/06/12 08:48:19;;;;;;;4.60;1.85;;;24.30;58.30;;;;;;5054325;28;20048;-74
2022/06/12 08:50:50;;;;;;;3.63;1.70;;;24.40;57.90;;;;;;5056353;28;20142;-70
2022/06/12 08:53:31;;;;;;;3.50;1.63;;;24.40;58.20;;;;;;5055551;28;20049;-69
2022/06/12 08:56:05;;;;;;;2.15;1.35;;;24.50;57.50;;;;;;5054224;28;20576;-68
2022/06/12 08:58:41;;;;;;;4.30;2.13;;;24.50;57.20;;;;;;5055425;28;20064;-74
2022/06/12 09:01:09;;;;;;;3.70;2.05;;;24.60;57.20;;;;;;5048043;28;20064;-68
2022/06/12 09:03:39;;;;;;;2.83;2.05;;;24.60;57.30;;;;;;5047875;28;20049;-69
2022/06/12 09:06:15;;;;;;;3.75;1.85;;;24.60;58.20;;;;;;5045933;28;20049;-69
2022/06/12 09:08:48;;;;;;;3.85;1.73;;;24.70;57.20;;;;;;5048329;28;20534;-69
2022/06/12 09:11:19;;;;;;;2.97;1.60;;;24.90;57.30;;;;;;5051561;28;20135;-72
2022/06/12 09:13:57;;;;;;;4.47;1.58;;;25.00;57.30;;;;;;5049000;28;20052;-71
2022/06/12 09:16:30;;;;;;;4.20;2.10;;;25.00;56.60;;;;;;5047895;28;20045;-70
2022/06/12 09:19:04;;;;;;;3.80;1.65;;;25.00;57.00;;;;;;5049425;28;20121;-69
2022/06/12 09:21:43;;;;;;;4.05;1.70;;;25.00;56.30;;;;;;5044206;28;20045;-71
2022/06/12 09:24:22;;;;;;;3.10;1.60;;;25.10;56.20;;;;;;5048476;28;20040;-70
2022/06/12 09:26:57;;;;;;;3.28;1.80;;;25.20;56.00;;;;;;5047481;28;20049;-71
2022/06/12 09:29:36;;;;;;;4.25;1.67;;;25.20;55.50;;;;;;5050327;28;20140;-69
2022/06/12 09:32:13;;;;;;;5.22;1.60;;;25.20;54.80;;;;;;5053543;28;20048;-71
2022/06/12 09:34:56;;;;;;;4.80;1.40;;;25.20;54.80;;;;;;5063285;28;20080;-71
2022/06/12 09:40:31;;;;;;;1.95;1.27;;;25.30;55.20;;;;;;5049590;28;20056;-71
2022/06/12 09:43:03;;;;;;;4.22;1.60;;;25.30;55.70;;;;;;5050347;28;20055;-73
2022/06/12 09:45:44;;;;;;;2.80;1.33;;;25.40;54.20;;;;;;5055329;28;20512;-68
2022/06/12 09:48:21;;;;;;;4.60;1.42;;;25.50;54.90;;;;;;5053414;28;20698;-71
2022/06/12 09:50:58;;;;;;;4.85;1.58;;;25.60;54.80;;;;;;5050496;28;20163;-70
2022/06/12 09:53:51;;;;;;;2.78;1.15;;;25.70;52.80;;;;;;5053440;28;20049;-70
2022/06/12 09:56:27;;;;;;;2.53;0.98;;;25.70;52.80;;;;;;5053865;28;20049;-72
2022/06/12 09:59:02;;;;;;;2.63;1.35;;;25.80;52.40;;;;;;5053074;28;20045;-71
2022/06/12 10:01:36;;;;;;;4.40;1.38;;;25.70;52.50;;;;;;5050123;28;20045;-72
2022/06/12 10:04:10;;;;;;;2.90;1.30;;;25.70;52.60;;;;;;5053936;28;20060;-71
2022/06/12 10:06:45;;;;;;;2.53;1.23;;;25.60;52.80;;;;;;5054266;28;20052;-72
2022/06/12 10:09:17;;;;;;;4.35;1.38;;;25.70;52.80;;;;;;5068794;28;20492;-72
2022/06/12 10:11:49;;;;;;;2.47;1.27;;;25.80;52.40;;;;;;5058507;28;20138;-72
2022/06/12 10:14:19;;;;;;;3.35;1.50;;;26.10;51.60;;;;;;5059491;28;20073;-72
2022/06/12 10:16:54;;;;;;;4.28;1.02;;;26.10;51.80;;;;;;5058942;28;20128;-72
2022/06/12 10:19:25;;;;;;;4.18;1.30;;;26.20;50.70;;;;;;5061431;28;20127;-70
2022/06/12 10:21:55;;;;;;;2.92;1.30;;;26.00;51.20;;;;;;5062294;28;20051;-71
2022/06/12 10:24:22;;;;;;;3.75;1.40;;;26.00;51.60;;;;;;5056528;28;20076;-69
2022/06/12 10:26:58;;;;;;;2.78;1.25;;;26.10;51.50;;;;;;5058618;28;20048;-72
2022/06/12 10:29:26;;;;;;;2.30;1.00;;;26.10;51.30;;;;;;5061471;28;20577;-72
2022/06/12 10:32:01;;;;;;;3.25;1.30;;;26.10;51.60;;;;;;5056214;28;20706;-73
2022/06/12 10:34:30;;;;;;;2.60;1.10;;;26.10;51.20;;;;;;5053668;28;20051;-71
2022/06/12 10:37:10;;;;;;;3.15;1.20;;;26.20;51.30;;;;;;5054996;28;20048;-73
2022/06/12 10:39:37;;;;;;;2.28;1.20;;;26.20;51.00;;;;;;5050789;28;20495;-73
2022/06/12 10:42:07;;;;;;;3.88;1.10;;;26.20;50.90;;;;;;5051778;28;20582;-67
2022/06/12 10:44:38;;;;;;;5.35;1.13;;;26.00;51.00;;;;;;5048447;28;20079;-71
2022/06/12 10:47:14;;;;;;;1.42;0.90;;;26.00;50.80;;;;;;5053339;28;20043;-71
2022/06/12 10:49:41;;;;;;;3.55;1.00;;;26.10;51.40;;;;;;5049278;28;20060;-71
2022/06/12 10:52:17;;;;;;;3.17;1.08;;;26.20;50.40;;;;;;5055463;28;20068;-71
2022/06/12 10:54:45;;;;;;;3.58;0.90;;;26.30;50.90;;;;;;5049368;28;20044;-70
2022/06/12 10:57:36;;;;;;;2.65;1.17;;;26.40;49.90;;;;;;5049254;28;20765;-72
2022/06/12 11:00:06;;;;;;;2.70;1.30;;;26.40;49.70;;;;;;5047183;28;20041;-73
2022/06/12 11:02:56;;;;;;;2.97;1.00;;;26.30;49.70;;;;;;5050076;28;20060;-72
2022/06/12 11:05:37;;;;;;;2.17;0.80;;;26.20;50.10;;;;;;5050689;28;20040;-71
2022/06/12 11:08:16;;;;;;;2.60;1.25;;;26.10;49.70;;;;;;5052442;28;20424;-70
2022/06/12 11:10:49;;;;;;;2.78;1.20;;;26.10;49.70;;;;;;5053594;28;20416;-68
2022/06/12 11:13:32;;;;;;;4.50;1.08;;;26.10;49.70;;;;;;5049989;28;20064;-71
2022/06/12 11:16:22;;;;;;;3.13;1.10;;;25.90;49.90;;;;;;5054031;28;20059;-72
2022/06/12 11:19:03;;;;;;;3.85;1.20;;;25.90;50.00;;;;;;5054935;28;20052;-71
2022/06/12 11:21:43;;;;;;;3.72;1.20;;;25.90;50.00;;;;;;5052845;28;20055;-70
2022/06/12 11:24:16;;;;;;;4.18;1.02;;;25.90;50.40;;;;;;5055633;28;20573;-71
2022/06/12 11:27:19;;;;;;;6.18;1.33;;;25.90;50.00;;;;;;5059073;28;20430;-67
2022/06/12 11:30:02;;;;;;;3.40;1.10;;;25.90;50.20;;;;;;5058162;28;20075;-71
2022/06/12 11:32:40;;;;;;;1.88;0.90;;;25.90;50.00;;;;;;5059532;28;20108;-72
2022/06/12 11:35:24;;;;;;;2.33;1.20;;;25.90;50.50;;;;;;5060043;28;20400;-72
2022/06/12 11:38:07;;;;;;;2.92;1.35;;;26.00;50.20;;;;;;5055331;28;20052;-71
2022/06/12 11:40:42;;;;;;;2.03;1.00;;;25.90;50.30;;;;;;5074648;28;20059;-72
2022/06/12 11:43:19;;;;;;;1.92;1.10;;;26.00;50.20;;;;;;5058257;28;20095;-71
2022/06/12 11:46:06;;;;;;;1.52;0.90;;;26.20;50.20;;;;;;5057301;28;20044;-69
2022/06/12 11:49:07;;;;;;;2.00;0.90;;;26.30;49.60;;;;;;5055430;28;20044;-72
2022/06/12 11:51:47;;;;;;;2.45;1.05;;;26.30;50.20;;;;;;5051299;28;20051;-70
2022/06/12 11:54:31;;;;;;;4.00;1.00;;;26.40;49.10;;;;;;5051015;28;20453;-72
2022/06/12 11:57:09;;;;;;;2.45;0.85;;;26.30;49.20;;;;;;5048919;28;20505;-72
2022/06/12 11:59:44;;;;;;;2.45;0.90;;;26.20;49.40;;;;;;5050345;28;20451;-67
2022/06/12 12:02:21;;;;;;;2.53;1.00;;;26.00;49.80;;;;;;5050484;28;20057;-70
2022/06/12 12:05:17;;;;;;;2.15;1.13;;;25.90;50.10;;;;;;5052148;28;20080;-72
2022/06/12 12:07:59;;;;;;;1.88;0.80;;;25.80;50.30;;;;;;5052778;28;20048;-71
2022/06/12 12:10:39;;;;;;;2.95;1.20;;;25.80;50.50;;;;;;5052851;28;20045;-72
2022/06/12 12:13:11;;;;;;;4.72;0.82;;;26.00;50.60;;;;;;5059582;28;20095;-70
2022/06/12 12:15:45;;;;;;;1.98;0.90;;;25.90;50.10;;;;;;5058413;28;20054;-71
2022/06/12 12:18:30;;;;;;;1.77;0.90;;;25.90;50.20;;;;;;5059584;28;20052;-71
2022/06/12 12:20:59;;;;;;;3.50;0.93;;;26.00;50.30;;;;;;5055139;28;20415;-67
2022/06/12 12:23:29;;;;;;;3.95;0.93;;;26.10;50.10;;;;;;5053838;28;20051;-72
2022/06/12 12:26:02;;;;;;;2.08;0.82;;;26.10;49.90;;;;;;5056719;28;20079;-68
2022/06/12 12:28:34;;;;;;;3.55;0.90;;;26.10;49.80;;;;;;5050645;28;20098;-67
2022/06/12 12:31:04;;;;;;;2.83;0.60;;;26.10;49.50;;;;;;5052192;28;20048;-67
2022/06/12 12:33:33;;;;;;;4.32;1.17;;;26.10;49.70;;;;;;5054035;28;20144;-71
2022/06/12 12:41:43;;;;;;;2.75;1.10;;;26.30;49.60;;;;;;5064524;28;20052;-68
2022/06/12 12:44:13;;;;;;;1.55;0.80;;;26.40;49.20;;;;;;5057572;28;20076;-73
2022/06/12 12:46:45;;;;;;;1.88;0.90;;;26.50;49.20;;;;;;5058038;28;20055;-69
2022/06/12 12:49:22;;;;;;;2.03;0.90;;;26.50;48.60;;;;;;5059295;28;20049;-73
2022/06/12 12:51:49;;;;;;;4.13;1.10;;;26.60;48.60;;;;;;5057439;28;20059;-72
2022/06/12 12:54:20;;;;;;;1.80;0.70;;;26.60;48.40;;;;;;5056773;28;20045;-68
2022/06/12 12:56:59;;;;;;;2.30;1.05;;;26.40;48.90;;;;;;5057126;28;20059;-74
2022/06/12 12:59:37;;;;;;;2.38;1.05;;;26.30;49.10;;;;;;5058668;28;20105;-73
2022/06/12 13:02:22;;;;;;;2.75;1.20;;;26.40;48.40;;;;;;5053648;28;20064;-68
2022/06/12 13:04:50;;;;;;;2.75;0.95;;;26.30;48.70;;;;;;5059413;28;20072;-74
2022/06/12 13:07:49;;;;;;;2.13;1.00;;;26.20;48.90;;;;;;5059195;28;20051;-70
2022/06/12 13:10:45;;;;;;;3.90;1.25;;;26.10;49.10;;;;;;5021356;28;20045;-70
2022/06/12 13:13:41;;;;;;;1.60;0.82;;;26.00;49.10;;;;;;5057138;28;20140;-71
2022/06/12 13:16:26;;;;;;;4.45;1.30;;;26.00;49.10;;;;;;5058809;28;20049;-70
2022/06/12 13:19:15;;;;;;;5.55;1.08;;;26.00;49.30;;;;;;5058859;28;20041;-69
2022/06/12 13:21:55;;;;;;;4.00;1.13;;;26.00;49.20;;;;;;5059766;28;20053;-72
2022/06/12 13:24:33;;;;;;;2.88;1.10;;;26.10;49.40;;;;;;5068247;28;20053;-73
2022/06/12 13:27:12;;;;;;;4.05;1.40;;;26.10;48.50;;;;;;5059953;28;20561;-70
2022/06/12 13:29:44;;;;;;;2.75;0.80;;;26.20;48.10;;;;;;5058675;28;20048;-68
2022/06/12 13:32:22;;;;;;;1.98;1.10;;;26.20;48.40;;;;;;5057729;28;20041;-68
2022/06/12 13:34:56;;;;;;;3.67;1.40;;;26.30;48.50;;;;;;5057381;28;20040;-69